createdAt,value
2022-10-12T00:01:37.048Z,2.70
2022-10-12T00:04:05.854Z,2.80
2022-10-12T00:06:34.798Z,2.63
2022-10-12T00:09:04.047Z,3.73
2022-10-12T00:11:32.757Z,4.10
2022-10-12T00:14:03.015Z,4.03
2022-10-12T00:16:32.339Z,4.33
2022-10-12T00:19:01.451Z,3.03
2022-10-12T00:21:31.176Z,3.97
2022-10-12T00:24:00.582Z,4.53
2022-10-12T00:26:30.352Z,3.20
2022-10-12T00:29:00.060Z,4.50
2022-10-12T00:31:31.188Z,3.50
2022-10-12T00:34:03.428Z,4.10
2022-10-12T00:36:34.132Z,3.07
2022-10-12T00:39:03.125Z,3.73
2022-10-12T00:41:32.933Z,3.97
2022-10-12T00:44:01.715Z,3.37
2022-10-12T00:46:33.253Z,3.07
2022-10-12T00:49:05.712Z,3.60
2022-10-12T00:51:34.680Z,5.73
2022-10-12T00:54:05.737Z,3.70
2022-10-12T00:56:35.880Z,3.07
2022-10-12T00:59:05.986Z,4.30
2022-10-12T01:01:36.688Z,3.70
2022-10-12T01:04:06.112Z,3.40
2022-10-12T01:06:35.327Z,4.40
2022-10-12T01:09:04.559Z,4.07
2022-10-12T01:11:33.760Z,3.83
2022-10-12T01:14:02.579Z,3.77
2022-10-12T01:16:35.723Z,3.53
2022-10-12T01:19:11.851Z,4.13
2022-10-12T01:21:42.545Z,3.63
2022-10-12T01:24:32.375Z,3.67
2022-10-12T01:27:19.651Z,4.13
2022-10-12T01:30:12.382Z,3.80
2022-10-12T01:32:54.008Z,3.90
2022-10-12T01:35:25.553Z,3.40
2022-10-12T01:37:59.245Z,4.90
2022-10-12T01:40:31.395Z,3.97
2022-10-12T01:43:00.244Z,3.53
2022-10-12T01:45:30.970Z,4.17
2022-10-12T01:47:59.921Z,3.27
2022-10-12T01:50:33.902Z,3.20
2022-10-12T01:53:08.402Z,4.30
2022-10-12T01:55:41.814Z,4.70
2022-10-12T01:58:28.146Z,4.50
2022-10-12T02:01:02.532Z,3.53
2022-10-12T02:03:37.918Z,2.77
2022-10-12T02:06:08.965Z,3.70
2022-10-12T02:08:40.399Z,3.63
2022-10-12T02:11:10.333Z,3.80
2022-10-12T02:13:42.120Z,3.07
2022-10-12T02:16:13.906Z,3.27
2022-10-12T02:18:44.677Z,4.07
2022-10-12T02:21:15.165Z,2.70
2022-10-12T02:23:44.735Z,3.90
2022-10-12T02:26:14.618Z,3.37
2022-10-12T02:28:45.881Z,3.47
2022-10-12T02:31:20.823Z,3.40
2022-10-12T02:33:53.498Z,3.40
2022-10-12T02:36:25.796Z,3.30
2022-10-12T02:38:57.450Z,3.43
2022-10-12T02:41:30.132Z,3.53
2022-10-12T02:44:00.377Z,3.87
2022-10-12T02:46:32.206Z,4.43
2022-10-12T02:49:01.848Z,3.43
2022-10-12T02:51:32.055Z,4.37
2022-10-12T02:54:00.843Z,3.70
2022-10-12T02:56:29.560Z,4.00
2022-10-12T02:58:58.613Z,3.03
2022-10-12T03:01:27.504Z,3.73
2022-10-12T03:03:58.685Z,3.60
2022-10-12T03:06:28.208Z,5.40
2022-10-12T03:08:57.496Z,3.20
2022-10-12T03:11:26.309Z,3.03
2022-10-12T03:13:55.531Z,2.33
2022-10-12T03:16:24.331Z,3.20
2022-10-12T03:18:53.435Z,3.33
2022-10-12T03:21:23.961Z,2.00
2022-10-12T03:23:53.018Z,3.43
2022-10-12T03:26:23.110Z,6.93
2022-10-12T03:28:52.079Z,4.83
2022-10-12T03:31:21.311Z,3.80
2022-10-12T03:33:50.406Z,3.77
2022-10-12T03:36:19.250Z,2.93
2022-10-12T03:38:49.760Z,3.20
2022-10-12T03:41:18.504Z,4.40
2022-10-12T03:43:47.239Z,3.87
2022-10-12T03:46:16.351Z,2.93
2022-10-12T03:48:45.453Z,4.40
2022-10-12T03:51:14.085Z,3.97
2022-10-12T03:53:45.621Z,3.00
2022-10-12T03:56:16.226Z,3.70
2022-10-12T03:58:45.326Z,5.00
2022-10-12T04:01:14.169Z,4.27
2022-10-12T04:03:43.207Z,4.50
2022-10-12T04:06:12.932Z,4.47
2022-10-12T04:08:42.895Z,4.47
2022-10-12T04:11:14.225Z,3.70
2022-10-12T04:13:44.753Z,3.07
2022-10-12T04:16:14.490Z,3.87
2022-10-12T04:18:45.595Z,5.20
2022-10-12T04:21:15.301Z,3.63
2022-10-12T04:23:44.455Z,5.00
2022-10-12T04:26:13.169Z,4.77
2022-10-12T04:28:42.093Z,3.73
2022-10-12T04:31:12.417Z,4.40
2022-10-12T04:33:41.467Z,4.47
2022-10-12T04:36:11.184Z,2.83
2022-10-12T04:38:39.893Z,4.40
2022-10-12T04:41:08.736Z,3.40
2022-10-12T04:43:37.810Z,2.60
2022-10-12T04:46:06.442Z,3.27
2022-10-12T04:48:36.476Z,2.80
2022-10-12T04:51:05.215Z,4.17
2022-10-12T04:53:34.091Z,3.50
2022-10-12T04:56:04.401Z,4.70
2022-10-12T04:58:33.604Z,4.37
2022-10-12T05:01:02.534Z,3.00
2022-10-12T05:03:31.807Z,3.23
2022-10-12T05:06:03.666Z,4.33
2022-10-12T05:08:32.390Z,4.40
2022-10-12T05:11:01.296Z,3.50
2022-10-12T05:13:30.122Z,3.80
2022-10-12T05:15:59.475Z,4.30
2022-10-12T05:18:28.135Z,4.77
2022-10-12T05:20:57.565Z,5.63
2022-10-12T05:23:28.746Z,3.77
2022-10-12T05:25:57.940Z,4.03
2022-10-12T05:28:26.739Z,4.33
2022-10-12T05:30:55.767Z,3.13
2022-10-12T05:33:24.656Z,5.70
2022-10-12T05:35:56.574Z,4.03
2022-10-12T05:38:25.617Z,4.43
2022-10-12T05:41:00.295Z,4.43
2022-10-12T05:43:29.932Z,4.60
2022-10-12T05:45:58.791Z,5.10
2022-10-12T05:48:27.652Z,4.30
2022-10-12T05:50:56.642Z,4.30
2022-10-12T05:53:25.828Z,3.30
2022-10-12T05:55:57.338Z,5.43
2022-10-12T05:58:26.555Z,4.50
2022-10-12T06:00:55.925Z,4.17
2022-10-12T06:03:26.405Z,4.40
2022-10-12T06:05:55.727Z,5.10
2022-10-12T06:08:24.913Z,4.07
2022-10-12T06:10:54.445Z,3.70
2022-10-12T06:13:25.531Z,3.90
2022-10-12T06:15:55.061Z,3.80
2022-10-12T06:18:25.108Z,4.33
2022-10-12T06:23:45.295Z,4.20
2022-10-12T06:26:14.161Z,4.80
2022-10-12T06:28:44.575Z,5.23
2022-10-12T06:31:14.349Z,4.27
2022-10-12T06:33:43.379Z,5.73
2022-10-12T06:36:12.444Z,7.87
2022-10-12T06:38:41.239Z,5.50
2022-10-12T06:41:10.647Z,4.57
2022-10-12T06:43:39.456Z,4.47
2022-10-12T06:46:10.255Z,5.37
2022-10-12T06:48:39.078Z,4.93
2022-10-12T06:51:08.300Z,3.70
2022-10-12T06:53:36.995Z,3.70
2022-10-12T06:56:08.142Z,4.00
2022-10-12T06:58:37.056Z,4.03
2022-10-12T07:01:06.594Z,3.27
2022-10-12T07:03:36.988Z,4.07
2022-10-12T07:06:09.557Z,4.03
2022-10-12T07:08:38.637Z,3.20
2022-10-12T07:11:08.883Z,4.00
2022-10-12T07:13:38.205Z,2.63
2022-10-12T07:16:07.351Z,5.07
2022-10-12T07:18:39.270Z,3.10
2022-10-12T07:21:08.772Z,4.57
2022-10-12T07:23:41.336Z,3.50
2022-10-12T07:26:14.517Z,2.87
2022-10-12T07:28:46.459Z,3.37
2022-10-12T07:31:15.574Z,3.43
2022-10-12T07:33:46.143Z,2.50
2022-10-12T07:36:21.661Z,3.13
2022-10-12T07:38:51.344Z,3.60
2022-10-12T07:41:21.037Z,2.90
2022-10-12T07:43:57.361Z,3.23
2022-10-12T07:46:28.337Z,2.90
2022-10-12T07:49:00.205Z,3.07
2022-10-12T07:51:29.448Z,2.30
2022-10-12T07:54:01.160Z,2.80
2022-10-12T07:56:32.824Z,3.10
2022-10-12T07:59:03.753Z,2.73
2022-10-12T08:01:35.247Z,3.20
2022-10-12T08:04:07.378Z,2.30
2022-10-12T08:06:39.821Z,3.13
2022-10-12T08:09:09.216Z,2.47
2022-10-12T08:11:40.718Z,2.27
2022-10-12T08:14:16.089Z,1.70
2022-10-12T08:16:47.519Z,2.80
2022-10-12T08:19:19.617Z,2.53
2022-10-12T08:21:59.745Z,2.67
2022-10-12T08:24:31.600Z,3.27
2022-10-12T08:27:05.932Z,2.40
2022-10-12T08:29:35.576Z,2.47
2022-10-12T08:32:04.842Z,2.40
2022-10-12T08:34:35.256Z,2.13
2022-10-12T08:37:04.473Z,2.20
2022-10-12T08:39:33.394Z,2.67
2022-10-12T08:42:09.819Z,2.30
2022-10-12T08:44:54.085Z,2.00
2022-10-12T08:47:32.384Z,1.97
2022-10-12T08:50:04.547Z,2.20
2022-10-12T08:52:35.733Z,2.40
2022-10-12T08:55:09.490Z,1.30
2022-10-12T08:57:38.851Z,1.83
2022-10-12T09:00:12.032Z,2.60
2022-10-12T09:02:51.550Z,2.47
2022-10-12T09:05:28.036Z,2.33
2022-10-12T09:08:00.405Z,1.83
2022-10-12T09:10:37.247Z,1.60
2022-10-12T09:13:12.044Z,1.57
2022-10-12T09:15:45.823Z,2.07
2022-10-12T09:18:18.013Z,1.90
2022-10-12T09:20:51.278Z,1.87
2022-10-12T09:23:25.613Z,1.07
2022-10-12T09:25:59.099Z,1.30
2022-10-12T09:28:34.166Z,1.20
2022-10-12T09:31:09.075Z,1.00
2022-10-12T09:33:42.306Z,1.00
2022-10-12T09:36:15.021Z,1.60
2022-10-12T09:38:46.407Z,1.10
2022-10-12T09:41:20.675Z,1.13
2022-10-12T09:44:05.074Z,1.50
2022-10-12T09:46:41.315Z,1.60
2022-10-12T09:49:12.617Z,1.60
2022-10-12T09:51:45.396Z,1.93
2022-10-12T09:54:31.059Z,2.20
2022-10-12T09:57:04.567Z,1.33
2022-10-12T09:59:36.059Z,1.30
2022-10-12T10:02:16.050Z,1.40
2022-10-12T10:04:46.834Z,0.83
2022-10-12T10:07:22.528Z,1.73
2022-10-12T10:10:08.835Z,0.93
2022-10-12T10:12:41.907Z,1.23
2022-10-12T10:15:21.855Z,1.23
2022-10-12T10:17:54.074Z,1.33
2022-10-12T10:20:28.014Z,1.00
2022-10-12T10:22:58.965Z,0.90
2022-10-12T10:25:28.458Z,1.67
2022-10-12T10:28:12.267Z,1.13
2022-10-12T10:30:41.934Z,1.87
2022-10-12T10:33:16.976Z,2.10
2022-10-12T10:35:57.716Z,0.93
2022-10-12T10:38:29.275Z,1.00
2022-10-12T10:40:59.082Z,0.90
2022-10-12T10:43:29.244Z,1.10
2022-10-12T10:45:59.290Z,1.07
2022-10-12T10:48:31.812Z,0.90
2022-10-12T10:51:04.457Z,0.50
2022-10-12T10:53:45.317Z,1.67
2022-10-12T10:56:16.917Z,0.83
2022-10-12T10:58:48.183Z,1.10
2022-10-12T11:01:21.199Z,1.00
2022-10-12T11:03:57.717Z,0.80
2022-10-12T11:06:33.174Z,1.70
2022-10-12T11:09:06.002Z,0.97
2022-10-12T11:11:37.237Z,0.90
2022-10-12T11:14:11.190Z,1.13
2022-10-12T11:16:42.241Z,1.03
2022-10-12T11:19:23.624Z,1.53
2022-10-12T11:21:55.962Z,1.30
2022-10-12T11:24:29.351Z,1.57
2022-10-12T11:27:05.747Z,1.10
2022-10-12T11:29:36.514Z,0.90
2022-10-12T11:32:09.991Z,0.87
2022-10-12T11:34:42.071Z,0.83
2022-10-12T11:37:19.948Z,0.93
2022-10-12T11:39:53.906Z,0.80
2022-10-12T11:42:30.163Z,0.87
2022-10-12T11:45:02.118Z,0.93
2022-10-12T11:47:36.113Z,0.90
2022-10-12T11:50:06.690Z,1.00
2022-10-12T11:52:39.648Z,0.90
2022-10-12T11:55:23.604Z,0.90
2022-10-12T11:57:53.748Z,1.83
2022-10-12T12:00:26.832Z,1.40
2022-10-12T12:02:59.174Z,2.30
2022-10-12T12:05:38.421Z,2.60
2022-10-12T12:08:11.103Z,1.83
2022-10-12T12:10:55.062Z,2.10
2022-10-12T12:13:30.256Z,1.40
2022-10-12T12:16:35.155Z,1.33
2022-10-12T12:19:15.799Z,1.77
2022-10-12T12:22:03.428Z,1.63
2022-10-12T12:24:34.806Z,2.03
2022-10-12T12:27:26.839Z,2.43
2022-10-12T12:29:57.852Z,2.17
2022-10-12T12:32:31.126Z,2.70
2022-10-12T12:35:02.079Z,1.87
2022-10-12T12:37:34.339Z,2.00
2022-10-12T12:40:03.690Z,1.97
2022-10-12T12:42:36.487Z,1.60
2022-10-12T12:45:24.532Z,2.93
2022-10-12T12:47:55.768Z,1.80
2022-10-12T12:50:38.091Z,0.77
2022-10-12T12:53:08.586Z,1.90
2022-10-12T12:55:58.723Z,1.20
2022-10-12T12:58:43.062Z,2.57
2022-10-12T13:01:23.984Z,3.40
2022-10-12T13:04:11.574Z,1.23
2022-10-12T13:07:02.074Z,1.13
2022-10-12T13:09:42.623Z,2.27
2022-10-12T13:12:24.147Z,1.50
2022-10-12T13:15:16.755Z,2.10
2022-10-12T13:17:59.124Z,1.33
2022-10-12T13:20:29.823Z,1.50
2022-10-12T13:22:59.341Z,1.80
2022-10-12T13:25:33.401Z,1.70
2022-10-12T13:28:04.584Z,2.00
2022-10-12T13:30:38.665Z,1.80
2022-10-12T13:33:14.598Z,1.60
2022-10-12T13:35:45.970Z,3.03
2022-10-12T13:38:23.020Z,2.80
2022-10-12T13:40:59.385Z,1.57
2022-10-12T13:43:31.529Z,1.47
2022-10-12T13:46:02.213Z,2.23
2022-10-12T13:48:58.178Z,1.67
2022-10-12T13:51:24.486Z,1.13
2022-10-12T13:53:53.976Z,1.50
2022-10-12T13:56:25.215Z,2.10
2022-10-12T13:58:56.564Z,1.43
2022-10-12T14:01:27.418Z,1.90
2022-10-12T14:04:04.675Z,1.97
2022-10-12T14:06:34.425Z,1.50
2022-10-12T14:09:09.337Z,1.60
2022-10-12T14:11:44.264Z,1.17
2022-10-12T14:14:20.631Z,2.37
2022-10-12T14:16:52.169Z,1.40
2022-10-12T14:19:22.066Z,2.27
2022-10-12T14:21:51.518Z,1.03
2022-10-12T14:24:21.202Z,0.80
2022-10-12T14:26:55.653Z,1.37
2022-10-12T14:29:28.912Z,1.07
2022-10-12T14:32:00.501Z,1.07
2022-10-12T14:34:49.650Z,1.00
2022-10-12T14:37:26.605Z,1.53
2022-10-12T14:40:00.722Z,1.37
2022-10-12T14:42:33.889Z,1.23
2022-10-12T14:45:04.209Z,1.67
2022-10-12T14:47:39.313Z,1.20
2022-10-12T14:50:09.926Z,1.30
2022-10-12T14:52:40.641Z,1.23
2022-10-12T14:55:16.785Z,1.70
2022-10-12T14:57:46.474Z,2.20
2022-10-12T15:00:16.440Z,2.00
2022-10-12T15:02:47.401Z,1.63
2022-10-12T15:05:17.748Z,0.90
2022-10-12T15:07:47.176Z,1.33
2022-10-12T15:10:16.429Z,1.50
2022-10-12T15:12:45.495Z,2.00
2022-10-12T15:15:19.997Z,1.13
2022-10-12T15:17:50.715Z,0.97
2022-10-12T15:20:20.214Z,1.90
2022-10-12T15:22:49.976Z,2.97
2022-10-12T15:25:21.144Z,2.00
2022-10-12T15:27:50.152Z,1.47
2022-10-12T15:30:19.320Z,1.13
2022-10-12T15:32:48.509Z,1.70
2022-10-12T15:35:21.336Z,0.97
2022-10-12T15:37:50.428Z,2.00
2022-10-12T15:40:21.357Z,1.70
2022-10-12T15:42:50.898Z,1.30
2022-10-12T15:45:22.034Z,2.10
2022-10-12T15:47:51.805Z,1.90
2022-10-12T15:50:22.989Z,1.70
2022-10-12T15:52:51.992Z,1.87
2022-10-12T15:55:22.164Z,1.57
2022-10-12T15:57:51.817Z,1.70
2022-10-12T16:00:21.506Z,1.33
2022-10-12T16:02:51.025Z,2.20
2022-10-12T16:05:25.723Z,1.90
2022-10-12T16:07:56.748Z,1.20
2022-10-12T16:10:27.819Z,1.90
2022-10-12T16:12:59.085Z,1.57
2022-10-12T16:15:39.229Z,1.50
2022-10-12T16:18:12.084Z,2.20
2022-10-12T16:20:41.910Z,1.40
2022-10-12T16:23:17.418Z,1.97
2022-10-12T16:25:46.300Z,1.80
2022-10-12T16:28:15.393Z,2.00
2022-10-12T16:30:54.276Z,2.93
2022-10-12T16:33:23.056Z,1.37
2022-10-12T16:35:52.928Z,3.07
2022-10-12T16:38:24.028Z,1.67
2022-10-12T16:40:53.028Z,2.47
2022-10-12T16:43:22.110Z,2.30
2022-10-12T16:45:57.497Z,3.37
2022-10-12T16:48:26.833Z,3.00
2022-10-12T16:50:55.777Z,2.20
2022-10-12T16:53:26.510Z,1.77
2022-10-12T16:55:56.792Z,3.93
2022-10-12T16:58:25.884Z,2.53
2022-10-12T17:00:55.333Z,1.90
2022-10-12T17:03:25.239Z,1.83
2022-10-12T17:06:00.406Z,2.30
2022-10-12T17:08:34.206Z,2.23
2022-10-12T17:11:06.778Z,2.50
2022-10-12T17:13:38.091Z,4.63
2022-10-12T17:16:28.141Z,7.83
2022-10-12T17:18:59.608Z,4.00
2022-10-12T17:21:29.244Z,3.43
2022-10-12T17:24:00.208Z,2.30
2022-10-12T17:26:29.182Z,2.57
2022-10-12T17:28:58.314Z,3.50
2022-10-12T17:31:27.382Z,2.27
2022-10-12T17:33:56.409Z,2.70
2022-10-12T17:36:28.203Z,2.80
2022-10-12T17:38:58.709Z,2.87
2022-10-12T17:41:30.034Z,3.13
2022-10-12T17:43:59.805Z,2.90
2022-10-12T17:46:28.862Z,2.67
2022-10-12T17:48:59.791Z,4.53
2022-10-12T17:51:39.649Z,3.87
2022-10-12T17:54:09.080Z,9.73
2022-10-12T17:57:05.032Z,6.67
2022-10-12T17:59:37.583Z,5.63
2022-10-12T18:02:22.354Z,6.27
2022-10-12T18:04:53.515Z,4.10
2022-10-12T18:10:23.466Z,5.70
2022-10-12T18:12:56.776Z,4.20
2022-10-12T18:15:28.436Z,3.00
2022-10-12T18:17:59.268Z,3.20
2022-10-12T18:20:29.208Z,3.77
2022-10-12T18:22:59.267Z,2.63
2022-10-12T18:25:29.601Z,3.43
2022-10-12T18:28:00.263Z,2.20
2022-10-12T18:30:32.743Z,4.10
2022-10-12T18:33:02.030Z,5.10
2022-10-12T18:35:32.652Z,2.73
2022-10-12T18:38:04.160Z,2.90
2022-10-12T18:40:39.804Z,3.00
2022-10-12T18:43:13.478Z,2.80
2022-10-12T18:45:45.962Z,3.47
2022-10-12T18:48:15.893Z,2.60
2022-10-12T18:50:45.017Z,2.37
2022-10-12T18:53:16.399Z,1.83
2022-10-12T18:55:45.280Z,1.83
2022-10-12T18:58:14.201Z,2.30
2022-10-12T19:00:46.770Z,2.90
2022-10-12T19:03:15.625Z,4.53
2022-10-12T19:05:44.879Z,2.63
2022-10-12T19:08:14.363Z,3.80
2022-10-12T19:10:44.142Z,3.50
2022-10-12T19:13:13.123Z,8.10
2022-10-12T19:15:42.440Z,8.20
2022-10-12T19:18:13.338Z,7.23
2022-10-12T19:20:43.207Z,5.63
2022-10-12T19:23:12.348Z,4.10
2022-10-12T19:25:48.671Z,5.40
2022-10-12T19:28:17.760Z,6.20
2022-10-12T19:30:47.114Z,3.93
2022-10-12T19:33:17.724Z,8.03
2022-10-12T19:35:46.860Z,4.27
2022-10-12T19:38:15.805Z,5.77
2022-10-12T19:40:46.197Z,5.63
2022-10-12T19:43:15.794Z,6.90
2022-10-12T19:45:47.756Z,11.00
2022-10-12T19:48:18.567Z,7.00
2022-10-12T19:50:47.883Z,7.57
2022-10-12T19:53:16.898Z,4.27
2022-10-12T19:55:49.993Z,4.97
2022-10-12T19:58:19.884Z,4.40
2022-10-12T20:00:49.685Z,4.20
2022-10-12T20:03:20.156Z,5.17
2022-10-12T20:05:49.862Z,6.80
2022-10-12T20:08:19.116Z,5.10
2022-10-12T20:10:48.245Z,5.97
2022-10-12T20:13:17.199Z,5.50
2022-10-12T20:15:47.116Z,4.20
2022-10-12T20:18:16.304Z,6.20
2022-10-12T20:20:53.251Z,5.17
2022-10-12T20:23:22.499Z,6.97
2022-10-12T20:25:53.387Z,5.47
2022-10-12T20:28:37.422Z,4.20
2022-10-12T20:31:07.623Z,8.97
2022-10-12T20:33:37.001Z,9.50
2022-10-12T20:36:09.834Z,6.20
2022-10-12T20:38:39.598Z,4.27
2022-10-12T20:41:09.704Z,5.50
2022-10-12T20:43:39.940Z,2.77
2022-10-12T20:46:09.806Z,3.13
2022-10-12T20:48:41.318Z,7.87
2022-10-12T20:51:12.584Z,4.53
2022-10-12T20:53:42.282Z,3.60
2022-10-12T20:56:11.530Z,4.43
2022-10-12T20:58:40.548Z,5.90
2022-10-12T21:01:13.378Z,5.90
2022-10-12T21:03:44.153Z,5.83
2022-10-12T21:06:23.455Z,2.40
2022-10-12T21:08:53.061Z,4.30
2022-10-12T21:11:22.313Z,5.20
2022-10-12T21:13:51.309Z,3.60
2022-10-12T21:16:20.870Z,3.93
2022-10-12T21:18:49.940Z,3.30
2022-10-12T21:21:21.762Z,3.37
2022-10-12T21:23:54.059Z,4.60
2022-10-12T21:26:23.819Z,3.17
2022-10-12T21:28:53.069Z,3.63
2022-10-12T21:31:22.392Z,4.10
2022-10-12T21:33:51.384Z,3.50
2022-10-12T21:36:24.150Z,4.03
2022-10-12T21:38:53.483Z,4.00
2022-10-12T21:41:24.181Z,4.23
2022-10-12T21:43:53.896Z,3.10
2022-10-12T21:46:23.549Z,3.53
2022-10-12T21:48:53.291Z,3.73
2022-10-12T21:51:27.296Z,3.30
2022-10-12T21:54:01.198Z,3.57
2022-10-12T21:56:31.754Z,4.40
2022-10-12T21:59:01.053Z,4.20
2022-10-12T22:01:31.017Z,4.93
2022-10-12T22:04:01.156Z,4.13
2022-10-12T22:06:31.805Z,2.33
2022-10-12T22:09:01.919Z,2.93
2022-10-12T22:11:31.703Z,3.57
2022-10-12T22:14:02.027Z,2.97
2022-10-12T22:16:31.569Z,4.07
2022-10-12T22:19:01.304Z,4.13
2022-10-12T22:21:32.239Z,2.93
2022-10-12T22:24:02.686Z,3.83
2022-10-12T22:26:31.824Z,4.17
2022-10-12T22:29:02.262Z,2.50
2022-10-12T22:31:31.074Z,4.13
2022-10-12T22:34:00.292Z,2.10
2022-10-12T22:36:29.575Z,3.07
2022-10-12T22:39:00.400Z,4.20
2022-10-12T22:41:31.397Z,3.43
2022-10-12T22:44:00.305Z,3.13
2022-10-12T22:46:29.572Z,2.93
2022-10-12T22:48:58.721Z,3.57
2022-10-12T22:51:31.212Z,3.97
2022-10-12T22:54:01.946Z,2.70
2022-10-12T22:56:31.070Z,3.87
2022-10-12T22:59:00.830Z,3.87
2022-10-12T23:01:33.808Z,4.27
2022-10-12T23:04:08.253Z,2.80
2022-10-12T23:06:37.086Z,4.43
2022-10-12T23:09:07.356Z,4.60
2022-10-12T23:11:36.144Z,3.43
2022-10-12T23:14:05.445Z,2.90
2022-10-12T23:16:34.553Z,3.80
2022-10-12T23:19:04.937Z,3.53
2022-10-12T23:21:36.728Z,3.30
2022-10-12T23:24:06.478Z,3.33
2022-10-12T23:26:37.314Z,4.60
2022-10-12T23:29:06.132Z,3.80
2022-10-12T23:31:35.931Z,2.40
2022-10-12T23:34:05.732Z,3.33
2022-10-12T23:36:47.159Z,2.80
2022-10-12T23:39:16.029Z,3.97
2022-10-12T23:41:49.026Z,3.40
2022-10-12T23:44:18.953Z,4.20
2022-10-12T23:50:10.812Z,5.00
2022-10-12T23:52:40.156Z,5.23
2022-10-12T23:55:10.347Z,6.27
2022-10-12T23:57:47.186Z,6.27
